Time;durP1;ratioP1;P1;durP2;ratioP2;P2;SDS_P1;SDS_P2;PMS_P1;PMS_P2;Temp;Humidity;BMP_temperature;BMP_pressure;BME280_temperature;BME280_humidity;BME280_pressure;Samples;Min_cycle;Max_cycle;Signal;HPM_P1;HPM_P2
2022/06/30 00:02:08;;;;;;;7.82;7.10;;;;;;;;;;5088019;28;20065;-69
2022/06/30 00:04:34;;;;;;;10.25;7.88;;;;;;;;;;5090894;28;20528;-69
2022/06/30 00:07:00;;;;;;;10.90;7.40;;;;;;;;;;5080422;28;20679;-69
2022/06/30 00:09:26;;;;;;;11.55;7.80;;;;;;;;;;5080787;28;20022;-69
2022/06/30 00:11:52;;;;;;;10.95;7.63;;;;;;;;;;5080908;28;20430;-69
2022/06/30 00:14:18;;;;;;;7.97;7.10;;;;;;;;;;5085229;28;20023;-69
2022/06/30 00:16:44;;;;;;;9.50;7.40;;;;;;;;;;5085790;28;20039;-69
2022/06/30 00:19:10;;;;;;;8.73;7.38;;;;;;;;;;5088845;28;20062;-69
2022/06/30 00:21:36;;;;;;;9.93;7.68;;;;;;;;;;5085951;28;20047;-69
2022/06/30 00:24:02;;;;;;;9.88;7.40;;;;;;;;;;5086866;28;20024;-69
2022/06/30 00:26:27;;;;;;;9.50;7.78;;;;;;;;;;5081232;28;20093;-70
2022/06/30 00:28:53;;;;;;;9.27;8.38;;;;;;;;;;5087989;28;20023;-69
2022/06/30 00:31:19;;;;;;;9.07;7.65;;;;;;;;;;5079501;27;20032;-69
2022/06/30 00:33:45;;;;;;;9.63;7.40;;;;;;;;;;5086279;28;20383;-69
2022/06/30 00:36:11;;;;;;;10.98;8.00;;;;;;;;;;5093009;28;20027;-69
2022/06/30 00:38:38;;;;;;;8.80;7.45;;;;;;;;;;5084503;28;20028;-69
2022/06/30 00:41:04;;;;;;;9.98;8.30;;;;;;;;;;5089643;28;20026;-69
2022/06/30 00:43:30;;;;;;;10.52;8.38;;;;;;;;;;5088317;28;20020;-69
2022/06/30 00:45:56;;;;;;;8.60;7.80;;;;;;;;;;5085722;28;20031;-69
2022/06/30 00:48:22;;;;;;;9.30;8.30;;;;;;;;;;5085209;28;20024;-69
2022/06/30 00:50:48;;;;;;;11.23;7.90;;;;;;;;;;5083889;28;20118;-69
2022/06/30 00:53:18;;;;;;;9.98;7.57;;;;;;;;;;5082789;28;20095;-69
2022/06/30 00:55:44;;;;;;;8.35;7.55;;;;;;;;;;5080194;28;20086;-69
2022/06/30 00:58:11;;;;;;;10.60;8.02;;;;;;;;;;5093568;28;20019;-69
2022/06/30 01:00:40;;;;;;;9.23;8.25;;;;;;;;;;5083722;28;20031;-70
2022/06/30 01:03:07;;;;;;;9.10;8.13;;;;;;;;;;5083582;28;20035;-70
2022/06/30 01:05:33;;;;;;;9.32;7.97;;;;;;;;;;5086372;28;20020;-69
2022/06/30 01:07:59;;;;;;;9.57;8.57;;;;;;;;;;5082846;28;20032;-69
2022/06/30 01:13:10;;;;;;;10.73;8.25;;;;;;;;;;5090929;28;20026;-69
2022/06/30 01:15:36;;;;;;;10.98;8.80;;;;;;;;;;5079483;28;20403;-69
2022/06/30 01:18:02;;;;;;;9.27;8.38;;;;;;;;;;5092431;28;20019;-69
2022/06/30 01:20:32;;;;;;;9.43;8.45;;;;;;;;;;5085765;28;20020;-69
2022/06/30 01:23:00;;;;;;;8.77;7.80;;;;;;;;;;5089852;28;20035;-69
2022/06/30 01:25:26;;;;;;;8.95;8.05;;;;;;;;;;5078173;28;20028;-69
2022/06/30 01:27:52;;;;;;;12.27;8.60;;;;;;;;;;5092891;28;20022;-70
2022/06/30 01:30:18;;;;;;;9.40;8.50;;;;;;;;;;5086472;28;20016;-69
2022/06/30 01:32:44;;;;;;;9.52;8.52;;;;;;;;;;5086627;28;20483;-69
2022/06/30 01:35:10;;;;;;;10.02;8.85;;;;;;;;;;5097656;28;20076;-69
2022/06/30 01:37:53;;;;;;;10.55;8.75;;;;;;;;;;5088810;28;20372;-69
2022/06/30 01:40:20;;;;;;;10.07;8.43;;;;;;;;;;5088930;28;20488;-70
2022/06/30 01:42:46;;;;;;;9.60;8.60;;;;;;;;;;5082332;28;20023;-70
2022/06/30 01:45:13;;;;;;;14.18;9.10;;;;;;;;;;5080713;28;20019;-69
2022/06/30 01:47:39;;;;;;;10.20;8.90;;;;;;;;;;5075717;28;20142;-69
2022/06/30 01:50:06;;;;;;;11.68;8.70;;;;;;;;;;5089357;28;20110;-70
2022/06/30 01:52:33;;;;;;;9.93;8.90;;;;;;;;;;5083903;28;20024;-69
2022/06/30 01:54:59;;;;;;;10.70;8.65;;;;;;;;;;5076747;28;20062;-69
2022/06/30 01:57:25;;;;;;;10.35;9.27;;;;;;;;;;5086819;28;20082;-69
2022/06/30 01:59:50;;;;;;;10.40;9.13;;;;;;;;;;5083366;28;20020;-69
2022/06/30 02:02:16;;;;;;;9.85;8.35;;;;;;;;;;5078535;28;20380;-70
2022/06/30 02:04:50;;;;;;;9.55;8.65;;;;;;;;;;5078630;28;20122;-70
2022/06/30 02:07:16;;;;;;;10.55;9.45;;;;;;;;;;5083519;28;20026;-69
2022/06/30 02:09:42;;;;;;;11.35;10.15;;;;;;;;;;5077972;28;20024;-70
2022/06/30 02:14:54;;;;;;;10.93;9.80;;;;;;;;;;5089653;28;20043;-70
2022/06/30 02:17:23;;;;;;;11.30;10.15;;;;;;;;;;5084814;28;20475;-70
2022/06/30 02:19:49;;;;;;;11.70;10.00;;;;;;;;;;5083496;28;20035;-70
2022/06/30 02:22:15;;;;;;;13.48;11.35;;;;;;;;;;5086200;28;20716;-70
2022/06/30 02:24:41;;;;;;;11.55;10.35;;;;;;;;;;5091067;28;20294;-70
2022/06/30 02:27:07;;;;;;;13.23;10.70;;;;;;;;;;5080989;28;20038;-69
2022/06/30 02:29:33;;;;;;;12.88;9.85;;;;;;;;;;5081695;28;20020;-70
2022/06/30 02:31:59;;;;;;;12.20;10.90;;;;;;;;;;5084616;28;20407;-70
2022/06/30 02:34:28;;;;;;;14.48;11.20;;;;;;;;;;5090246;28;20114;-70
2022/06/30 02:36:54;;;;;;;12.68;11.38;;;;;;;;;;5085068;28;20027;-69
2022/06/30 02:39:20;;;;;;;12.13;10.60;;;;;;;;;;5082059;28;20028;-69
2022/06/30 02:41:46;;;;;;;13.38;10.48;;;;;;;;;;5086560;28;20073;-70
2022/06/30 02:44:12;;;;;;;12.85;10.82;;;;;;;;;;5086747;28;20094;-70
2022/06/30 02:46:38;;;;;;;13.80;11.80;;;;;;;;;;5085208;28;20051;-70
2022/06/30 02:49:04;;;;;;;12.82;11.48;;;;;;;;;;5093558;28;20067;-70
2022/06/30 02:51:30;;;;;;;15.27;12.18;;;;;;;;;;5090788;28;20028;-70
2022/06/30 02:53:56;;;;;;;13.68;11.40;;;;;;;;;;5094177;28;20058;-69
2022/06/30 02:56:22;;;;;;;13.45;12.05;;;;;;;;;;5085347;28;20047;-70
2022/06/30 02:58:49;;;;;;;13.63;12.20;;;;;;;;;;5092616;28;20047;-70
2022/06/30 03:01:15;;;;;;;13.40;12.00;;;;;;;;;;5085114;28;20020;-70
2022/06/30 03:03:41;;;;;;;13.13;11.82;;;;;;;;;;5086450;28;20039;-70
2022/06/30 03:06:07;;;;;;;13.27;11.88;;;;;;;;;;5090454;28;20059;-70
2022/06/30 03:08:33;;;;;;;15.73;12.52;;;;;;;;;;5087167;28;20376;-70
2022/06/30 03:10:59;;;;;;;14.32;12.70;;;;;;;;;;5090525;28;20127;-70
2022/06/30 03:13:25;;;;;;;14.15;12.65;;;;;;;;;;5087089;28;20541;-69
2022/06/30 03:15:51;;;;;;;14.73;12.45;;;;;;;;;;5087016;28;20146;-69
2022/06/30 03:18:17;;;;;;;17.63;13.43;;;;;;;;;;5082814;28;20150;-70
2022/06/30 03:20:43;;;;;;;15.77;13.02;;;;;;;;;;5090694;28;20024;-69
2022/06/30 03:23:09;;;;;;;14.85;13.25;;;;;;;;;;5090279;28;20032;-71
2022/06/30 03:25:35;;;;;;;18.50;13.80;;;;;;;;;;5083480;28;20032;-70
2022/06/30 03:28:02;;;;;;;16.77;13.23;;;;;;;;;;5086121;28;20494;-70
2022/06/30 03:30:28;;;;;;;18.08;13.98;;;;;;;;;;5086960;28;20032;-70
2022/06/30 03:32:54;;;;;;;17.38;13.02;;;;;;;;;;5088470;28;20034;-70
2022/06/30 03:35:20;;;;;;;20.92;13.65;;;;;;;;;;5088693;28;20583;-69
2022/06/30 03:37:46;;;;;;;15.55;12.43;;;;;;;;;;5085632;28;20024;-70
2022/06/30 03:40:12;;;;;;;16.15;13.18;;;;;;;;;;5094960;28;20024;-69
2022/06/30 03:42:38;;;;;;;14.10;12.50;;;;;;;;;;5084450;28;20069;-70
2022/06/30 03:45:05;;;;;;;15.65;13.23;;;;;;;;;;5088089;28;20031;-69
2022/06/30 03:47:31;;;;;;;20.88;14.32;;;;;;;;;;5092829;28;20363;-70
2022/06/30 03:49:56;;;;;;;16.38;13.75;;;;;;;;;;5088034;28;20077;-69
2022/06/30 03:52:22;;;;;;;14.48;13.05;;;;;;;;;;5092021;28;20024;-70
2022/06/30 03:54:48;;;;;;;15.38;13.50;;;;;;;;;;5086779;28;20407;-69
2022/06/30 03:57:14;;;;;;;14.45;12.95;;;;;;;;;;5084262;28;20465;-70
2022/06/30 03:59:40;;;;;;;15.23;13.45;;;;;;;;;;5086425;28;20604;-70
2022/06/30 04:02:06;;;;;;;16.92;13.10;;;;;;;;;;5085627;28;20784;-70
2022/06/30 04:04:32;;;;;;;16.30;12.55;;;;;;;;;;5089607;28;20505;-70
2022/06/30 04:06:59;;;;;;;16.90;13.80;;;;;;;;;;5094138;28;20110;-70
2022/06/30 04:09:25;;;;;;;15.23;13.63;;;;;;;;;;5093983;28;20073;-69
2022/06/30 04:11:51;;;;;;;14.52;12.98;;;;;;;;;;5087304;28;20023;-70
2022/06/30 04:14:17;;;;;;;16.02;12.77;;;;;;;;;;5086953;28;20407;-70
2022/06/30 04:16:43;;;;;;;14.57;13.18;;;;;;;;;;5085561;28;20077;-70
2022/06/30 04:19:08;;;;;;;15.73;13.18;;;;;;;;;;5079771;28;20386;-70
2022/06/30 04:21:34;;;;;;;16.13;13.82;;;;;;;;;;5090266;28;20043;-70
2022/06/30 04:24:00;;;;;;;15.60;13.95;;;;;;;;;;5090917;28;20062;-70
2022/06/30 04:26:26;;;;;;;16.80;14.63;;;;;;;;;;5088931;28;20016;-71
2022/06/30 04:28:54;;;;;;;15.45;13.73;;;;;;;;;;5085106;28;20020;-70
2022/06/30 04:34:05;;;;;;;17.80;15.68;;;;;;;;;;5090068;28;20035;-69
2022/06/30 04:36:31;;;;;;;18.25;16.25;;;;;;;;;;5087793;28;20068;-70
2022/06/30 04:38:56;;;;;;;17.98;15.77;;;;;;;;;;5088462;28;20016;-69
2022/06/30 04:41:25;;;;;;;20.58;17.23;;;;;;;;;;5084703;28;20028;-69
2022/06/30 04:43:55;;;;;;;23.85;18.85;;;;;;;;;;5081322;28;20025;-69
2022/06/30 04:46:21;;;;;;;23.35;18.48;;;;;;;;;;5079864;28;20773;-69
2022/06/30 04:48:47;;;;;;;19.02;16.75;;;;;;;;;;5096709;28;20015;-69
2022/06/30 04:51:14;;;;;;;16.98;15.18;;;;;;;;;;5086747;28;20020;-69
2022/06/30 04:53:42;;;;;;;16.77;14.90;;;;;;;;;;5088092;28;20566;-70
2022/06/30 04:56:09;;;;;;;17.17;15.02;;;;;;;;;;5086169;28;20020;-70
2022/06/30 04:58:35;;;;;;;15.35;13.65;;;;;;;;;;5080442;28;20476;-69
2022/06/30 05:01:01;;;;;;;19.60;14.38;;;;;;;;;;5081328;28;20039;-69
2022/06/30 05:03:27;;;;;;;19.38;13.40;;;;;;;;;;5084156;28;20027;-69
2022/06/30 05:05:54;;;;;;;14.43;12.93;;;;;;;;;;5088146;28;20109;-70
2022/06/30 05:08:20;;;;;;;14.77;12.27;;;;;;;;;;5083506;28;20032;-70
2022/06/30 05:10:46;;;;;;;17.25;12.45;;;;;;;;;;5075832;28;20476;-69
2022/06/30 05:13:12;;;;;;;14.77;11.90;;;;;;;;;;5084836;28;20108;-69
2022/06/30 05:15:38;;;;;;;15.60;12.07;;;;;;;;;;5080372;28;20522;-69
2022/06/30 05:18:04;;;;;;;16.25;11.00;;;;;;;;;;5077814;28;20032;-70
2022/06/30 05:20:31;;;;;;;12.43;10.93;;;;;;;;;;5083405;28;20346;-69
2022/06/30 05:22:57;;;;;;;13.68;11.65;;;;;;;;;;5085472;28;20400;-69
2022/06/30 05:28:08;;;;;;;15.38;11.68;;;;;;;;;;5084770;28;20046;-70
2022/06/30 05:30:34;;;;;;;19.15;12.30;;;;;;;;;;5080372;28;20032;-69
2022/06/30 05:33:00;;;;;;;17.52;11.52;;;;;;;;;;5077798;28;20155;-69
2022/06/30 05:35:26;;;;;;;14.88;11.82;;;;;;;;;;5083800;28;20028;-69
2022/06/30 05:37:52;;;;;;;17.60;12.00;;;;;;;;;;5082029;28;20027;-69
2022/06/30 05:40:18;;;;;;;19.80;12.73;;;;;;;;;;5082768;28;20061;-69
2022/06/30 05:42:44;;;;;;;16.40;12.38;;;;;;;;;;5087948;28;20482;-68
2022/06/30 05:45:10;;;;;;;19.20;14.75;;;;;;;;;;5074527;28;20036;-71
2022/06/30 05:47:46;;;;;;;15.13;12.00;;;;;;;;;;5081375;28;20026;-72
2022/06/30 05:50:13;;;;;;;22.55;12.50;;;;;;;;;;5082981;28;20020;-72
2022/06/30 05:52:39;;;;;;;21.13;12.57;;;;;;;;;;5082622;28;20024;-72
2022/06/30 05:55:06;;;;;;;16.92;12.75;;;;;;;;;;5076831;28;20374;-72
2022/06/30 05:57:32;;;;;;;15.18;12.80;;;;;;;;;;5083623;28;20031;-72
2022/06/30 05:59:57;;;;;;;18.85;12.93;;;;;;;;;;5078792;28;20037;-72
2022/06/30 06:02:23;;;;;;;18.67;11.75;;;;;;;;;;5078516;28;20028;-73
2022/06/30 06:04:49;;;;;;;16.45;11.70;;;;;;;;;;5076880;28;20036;-72
2022/06/30 06:07:15;;;;;;;18.55;11.23;;;;;;;;;;5071011;28;20108;-72
2022/06/30 06:09:41;;;;;;;14.05;10.85;;;;;;;;;;5082581;28;20024;-70
2022/06/30 06:12:08;;;;;;;17.33;12.40;;;;;;;;;;5080023;28;20039;-71
2022/06/30 06:14:34;;;;;;;15.05;11.35;;;;;;;;;;5078508;28;20138;-72
2022/06/30 06:17:00;;;;;;;14.98;11.27;;;;;;;;;;5082366;28;20123;-72
2022/06/30 06:19:25;;;;;;;14.60;10.48;;;;;;;;;;5085919;28;20066;-72
2022/06/30 06:21:51;;;;;;;17.25;10.68;;;;;;;;;;5071767;28;20070;-72
2022/06/30 06:24:18;;;;;;;16.17;9.77;;;;;;;;;;5078510;28;20055;-71
2022/06/30 06:26:44;;;;;;;12.85;8.40;;;;;;;;;;5077599;28;20056;-73
2022/06/30 06:29:10;;;;;;;12.60;8.30;;;;;;;;;;5084375;28;20059;-71
2022/06/30 06:31:39;;;;;;;13.10;7.50;;;;;;;;;;5080939;28;20028;-72
2022/06/30 06:34:06;;;;;;;9.07;6.65;;;;;;;;;;5081655;28;20034;-71
2022/06/30 06:36:32;;;;;;;15.00;8.52;;;;;;;;;;5087006;28;20020;-68
2022/06/30 06:38:58;;;;;;;8.60;5.90;;;;;;;;;;5081508;28;20020;-68
2022/06/30 06:41:24;;;;;;;9.80;5.97;;;;;;;;;;5081407;28;20035;-68
2022/06/30 06:43:51;;;;;;;11.52;6.32;;;;;;;;;;5082751;28;20387;-68
2022/06/30 06:46:18;;;;;;;12.45;6.28;;;;;;;;;;5087869;28;20391;-68
2022/06/30 06:48:44;;;;;;;12.82;6.03;;;;;;;;;;5089894;28;20031;-68
2022/06/30 06:51:10;;;;;;;10.00;5.57;;;;;;;;;;5087684;28;20020;-68
2022/06/30 06:53:36;;;;;;;9.30;5.00;;;;;;;;;;5082286;28;20025;-68
2022/06/30 06:56:03;;;;;;;8.15;4.50;;;;;;;;;;5087990;28;20468;-68
2022/06/30 06:58:29;;;;;;;12.02;4.57;;;;;;;;;;5082008;28;20030;-68
2022/06/30 07:00:55;;;;;;;6.47;4.32;;;;;;;;;;5083889;28;20467;-68
2022/06/30 07:03:21;;;;;;;10.93;4.82;;;;;;;;;;5081560;28;20059;-68
2022/06/30 07:05:47;;;;;;;9.93;4.75;;;;;;;;;;5081485;28;20043;-69
2022/06/30 07:08:13;;;;;;;7.45;4.53;;;;;;;;;;5075895;28;20885;-68
2022/06/30 07:10:39;;;;;;;15.38;4.75;;;;;;;;;;5083301;28;20107;-69
2022/06/30 07:13:05;;;;;;;9.07;4.00;;;;;;;;;;5081932;28;20131;-69
2022/06/30 07:15:31;;;;;;;6.72;4.00;;;;;;;;;;5082562;28;20111;-69
2022/06/30 07:17:58;;;;;;;10.40;4.25;;;;;;;;;;5082759;28;20025;-69
2022/06/30 07:20:25;;;;;;;6.82;3.67;;;;;;;;;;5084772;28;20024;-69
2022/06/30 07:22:51;;;;;;;9.32;4.40;;;;;;;;;;5085168;28;20483;-68
2022/06/30 07:25:17;;;;;;;11.30;3.97;;;;;;;;;;5091232;28;20498;-68
2022/06/30 07:27:43;;;;;;;11.05;4.78;;;;;;;;;;5084884;28;20066;-69
2022/06/30 07:30:09;;;;;;;11.10;4.80;;;;;;;;;;5085433;28;20428;-68
2022/06/30 07:32:36;;;;;;;10.25;4.90;;;;;;;;;;5088134;28;20750;-69
2022/06/30 07:35:02;;;;;;;9.02;4.72;;;;;;;;;;5090250;28;20053;-68
2022/06/30 07:37:28;;;;;;;12.55;5.05;;;;;;;;;;5079081;28;20048;-69
2022/06/30 07:39:54;;;;;;;11.07;4.65;;;;;;;;;;5081327;28;20756;-69
2022/06/30 07:42:20;;;;;;;8.82;3.80;;;;;;;;;;5089746;28;20394;-69
2022/06/30 07:44:46;;;;;;;11.27;4.32;;;;;;;;;;5092735;28;20027;-68
2022/06/30 07:47:12;;;;;;;13.25;4.20;;;;;;;;;;5080699;28;20020;-68
2022/06/30 07:49:40;;;;;;;7.45;4.50;;;;;;;;;;5089635;28;20322;-68
2022/06/30 07:52:06;;;;;;;10.05;4.88;;;;;;;;;;5088506;28;20035;-69
2022/06/30 07:54:32;;;;;;;9.10;4.50;;;;;;;;;;5088004;28;20143;-68
2022/06/30 07:56:59;;;;;;;8.18;3.70;;;;;;;;;;5080289;28;20027;-68
2022/06/30 07:59:25;;;;;;;9.70;3.85;;;;;;;;;;5091288;28;20077;-68
2022/06/30 08:01:51;;;;;;;5.70;3.22;;;;;;;;;;5090827;27;20031;-68
2022/06/30 08:04:17;;;;;;;10.07;3.80;;;;;;;;;;5088656;28;20395;-68
2022/06/30 08:06:43;;;;;;;10.93;3.45;;;;;;;;;;5083459;28;20017;-68
2022/06/30 08:09:09;;;;;;;12.77;3.40;;;;;;;;;;5083511;28;20031;-68
2022/06/30 08:11:38;;;;;;;7.80;3.72;;;;;;;;;;5093546;28;20021;-68
2022/06/30 08:14:03;;;;;;;9.20;3.63;;;;;;;;;;5088947;28;20488;-68
2022/06/30 08:16:29;;;;;;;10.25;3.55;;;;;;;;;;5085201;28;20113;-68
2022/06/30 08:18:55;;;;;;;7.75;3.47;;;;;;;;;;5086070;28;20401;-69
2022/06/30 08:21:21;;;;;;;8.93;3.60;;;;;;;;;;5089441;28;20093;-69
2022/06/30 08:23:47;;;;;;;8.32;3.42;;;;;;;;;;5080187;28;20036;-68
2022/06/30 08:26:13;;;;;;;6.93;4.22;;;;;;;;;;5087548;28;20483;-69
2022/06/30 08:28:39;;;;;;;197.88;176.25;;;;;;;;;;5089641;28;20215;-65
2022/06/30 08:31:05;;;;;;;9.95;4.55;;;;;;;;;;5076749;28;20411;-68
2022/06/30 08:33:31;;;;;;;6.88;3.10;;;;;;;;;;5094014;28;20012;-68
2022/06/30 08:35:57;;;;;;;7.60;3.55;;;;;;;;;;5082689;28;20123;-68
2022/06/30 08:38:23;;;;;;;12.02;3.88;;;;;;;;;;5086387;28;20043;-68
2022/06/30 08:43:35;;;;;;;11.05;3.30;;;;;;;;;;5087211;28;20030;-68
2022/06/30 08:46:03;;;;;;;8.98;3.47;;;;;;;;;;5091910;28;20028;-68
2022/06/30 08:48:30;;;;;;;7.47;3.90;;;;;;;;;;5089266;28;20641;-68
2022/06/30 08:51:03;;;;;;;7.47;3.40;;;;;;;;;;5093152;28;20016;-68
2022/06/30 08:53:31;;;;;;;8.88;3.50;;;;;;;;;;5077713;28;20027;-68
2022/06/30 08:55:58;;;;;;;8.25;4.30;;;;;;;;;;5080789;28;20089;-68
2022/06/30 08:58:24;;;;;;;8.25;3.80;;;;;;;;;;5090658;28;20032;-68
2022/06/30 09:00:52;;;;;;;8.20;3.50;;;;;;;;;;5088218;28;20115;-67
2022/06/30 09:03:18;;;;;;;8.30;2.97;;;;;;;;;;5090113;28;20028;-67
2022/06/30 09:05:46;;;;;;;6.40;3.22;;;;;;;;;;5090642;28;20048;-67
2022/06/30 09:08:12;;;;;;;6.85;2.95;;;;;;;;;;5089243;28;20030;-67
2022/06/30 09:10:46;;;;;;;7.95;2.90;;;;;;;;;;5088003;28;20026;-67
2022/06/30 09:13:13;;;;;;;7.28;3.00;;;;;;;;;;5084924;28;20013;-68
2022/06/30 09:15:39;;;;;;;9.45;2.85;;;;;;;;;;5087058;28;20021;-68
2022/06/30 09:18:06;;;;;;;7.78;2.88;;;;;;;;;;5081237;28;20042;-67
2022/06/30 09:20:41;;;;;;;6.75;3.38;;;;;;;;;;5083274;28;20066;-67
2022/06/30 09:23:23;;;;;;;8.90;2.75;;;;;;;;;;5085371;28;20089;-68
2022/06/30 09:25:50;;;;;;;7.10;3.10;;;;;;;;;;5086035;28;20027;-67
2022/06/30 09:28:17;;;;;;;8.35;3.35;;;;;;;;;;5084984;28;20062;-67
2022/06/30 09:30:43;;;;;;;5.38;3.10;;;;;;;;;;5081921;28;20460;-67
2022/06/30 09:33:09;;;;;;;12.77;3.10;;;;;;;;;;5086909;28;20408;-68
2022/06/30 09:35:38;;;;;;;7.93;3.30;;;;;;;;;;5085321;28;20028;-67
2022/06/30 09:38:08;;;;;;;7.60;3.40;;;;;;;;;;5091645;28;20070;-67
2022/06/30 09:41:00;;;;;;;8.73;3.60;;;;;;;;;;5092092;28;20514;-67
2022/06/30 09:43:32;;;;;;;10.70;3.20;;;;;;;;;;5081079;28;20032;-67
2022/06/30 09:45:58;;;;;;;12.25;3.38;;;;;;;;;;5088166;28;20064;-67
2022/06/30 09:48:27;;;;;;;8.80;3.05;;;;;;;;;;5087539;28;20024;-67
2022/06/30 09:51:00;;;;;;;8.55;3.08;;;;;;;;;;5087401;28;20052;-67
2022/06/30 09:53:26;;;;;;;7.25;3.22;;;;;;;;;;5086280;28;20043;-67
2022/06/30 09:55:52;;;;;;;6.88;3.00;;;;;;;;;;5078196;28;20028;-67
2022/06/30 09:58:30;;;;;;;7.97;3.03;;;;;;;;;;5083223;28;20039;-67
2022/06/30 10:00:56;;;;;;;10.30;3.10;;;;;;;;;;5081015;28;20464;-68
2022/06/30 10:03:22;;;;;;;9.45;3.00;;;;;;;;;;5079527;28;20102;-67
2022/06/30 10:05:49;;;;;;;13.50;3.38;;;;;;;;;;5088972;28;20635;-67
2022/06/30 10:08:16;;;;;;;8.45;3.70;;;;;;;;;;5082567;27;20031;-67
2022/06/30 10:10:42;;;;;;;11.35;3.65;;;;;;;;;;5084043;28;20048;-67
2022/06/30 10:13:14;;;;;;;12.85;5.15;;;;;;;;;;5082966;28;20062;-67
2022/06/30 10:15:40;;;;;;;10.10;4.45;;;;;;;;;;5085131;28;20035;-67
2022/06/30 10:18:08;;;;;;;11.02;5.25;;;;;;;;;;5078191;28;20039;-67
2022/06/30 10:20:38;;;;;;;12.23;7.13;;;;;;;;;;5084462;28;20545;-67
2022/06/30 10:23:04;;;;;;;14.93;6.43;;;;;;;;;;5086549;28;20018;-68
2022/06/30 10:25:30;;;;;;;9.45;5.70;;;;;;;;;;5090754;28;20645;-67
2022/06/30 10:27:56;;;;;;;10.70;6.82;;;;;;;;;;5082802;28;20394;-68
2022/06/30 10:30:24;;;;;;;9.80;6.65;;;;;;;;;;5080413;28;20117;-67
2022/06/30 10:32:53;;;;;;;11.98;6.13;;;;;;;;;;5087590;28;20026;-68
2022/06/30 10:35:32;;;;;;;14.45;7.00;;;;;;;;;;5086938;28;20047;-67
2022/06/30 10:37:58;;;;;;;12.05;5.80;;;;;;;;;;5087490;28;20039;-66
2022/06/30 10:40:45;;;;;;;11.88;5.70;;;;;;;;;;5083952;28;20028;-67
2022/06/30 10:43:11;;;;;;;11.45;7.05;;;;;;;;;;5102607;28;20028;-67
2022/06/30 10:45:53;;;;;;;7.53;4.63;;;;;;;;;;5081507;28;20023;-68
2022/06/30 10:48:19;;;;;;;13.45;5.03;;;;;;;;;;5084416;28;20147;-67
2022/06/30 10:50:45;;;;;;;11.50;4.88;;;;;;;;;;5085039;28;20437;-67
2022/06/30 10:53:34;;;;;;;9.55;5.90;;;;;;;;;;5086538;28;20483;-67
2022/06/30 10:56:00;;;;;;;9.57;5.82;;;;;;;;;;5078940;28;20036;-67
2022/06/30 10:58:26;;;;;;;8.50;4.90;;;;;;;;;;5082731;28;20032;-67
2022/06/30 11:01:02;;;;;;;10.02;5.03;;;;;;;;;;5081745;28;20099;-67
2022/06/30 11:03:34;;;;;;;9.57;4.57;;;;;;;;;;5080277;28;20074;-67
2022/06/30 11:06:12;;;;;;;11.25;4.63;;;;;;;;;;5078693;28;20546;-68
2022/06/30 11:08:47;;;;;;;11.57;4.50;;;;;;;;;;5083734;28;20659;-67
2022/06/30 11:11:21;;;;;;;13.60;5.50;;;;;;;;;;5081383;28;20094;-67
2022/06/30 11:13:48;;;;;;;9.63;4.43;;;;;;;;;;5079763;28;20099;-67
2022/06/30 11:16:14;;;;;;;7.93;4.20;;;;;;;;;;5080637;28;20032;-67
2022/06/30 11:18:40;;;;;;;9.73;3.80;;;;;;;;;;5079628;28;20051;-67
2022/06/30 11:21:06;;;;;;;10.82;3.70;;;;;;;;;;5086564;28;20028;-67
2022/06/30 11:23:39;;;;;;;8.45;4.00;;;;;;;;;;5086904;28;20051;-67
2022/06/30 11:28:52;;;;;;;7.32;3.20;;;;;;;;;;5076278;28;20039;-67
2022/06/30 11:31:25;;;;;;;10.02;5.10;;;;;;;;;;5086980;28;20032;-67
2022/06/30 11:33:57;;;;;;;7.85;4.38;;;;;;;;;;5082267;28;20431;-67
2022/06/30 11:36:23;;;;;;;6.95;4.95;;;;;;;;;;5088426;28;20028;-67
2022/06/30 11:38:56;;;;;;;11.18;5.18;;;;;;;;;;5094084;28;20612;-67
2022/06/30 11:44:08;;;;;;;11.10;5.72;;;;;;;;;;5093483;28;20034;-67
2022/06/30 11:46:46;;;;;;;11.70;4.43;;;;;;;;;;5089191;28;20032;-67
2022/06/30 11:49:12;;;;;;;10.73;3.90;;;;;;;;;;5092618;28;20458;-67
2022/06/30 11:51:38;;;;;;;9.48;4.10;;;;;;;;;;5091927;28;20095;-67
2022/06/30 11:54:05;;;;;;;9.30;4.07;;;;;;;;;;5088562;28;20062;-67
2022/06/30 11:56:44;;;;;;;10.82;3.63;;;;;;;;;;5089426;28;20027;-67
2022/06/30 11:59:10;;;;;;;10.48;5.45;;;;;;;;;;5084834;28;20039;-66
2022/06/30 12:01:36;;;;;;;9.88;4.53;;;;;;;;;;5094760;28;20031;-67
2022/06/30 12:04:12;;;;;;;7.50;5.43;;;;;;;;;;5093079;27;20036;-67
2022/06/30 12:06:38;;;;;;;8.55;5.53;;;;;;;;;;5090257;28;20357;-67
2022/06/30 12:09:04;;;;;;;11.10;5.75;;;;;;;;;;5090690;28;20016;-67
2022/06/30 12:11:30;;;;;;;15.43;4.97;;;;;;;;;;5095213;28;20043;-67
2022/06/30 12:13:56;;;;;;;12.15;5.88;;;;;;;;;;5092211;28;20020;-67
2022/06/30 12:16:22;;;;;;;10.63;5.63;;;;;;;;;;5077762;28;20028;-67
2022/06/30 12:18:48;;;;;;;9.13;4.93;;;;;;;;;;5082602;28;20039;-67
2022/06/30 12:21:14;;;;;;;14.27;4.20;;;;;;;;;;5084836;28;20028;-68
2022/06/30 12:23:42;;;;;;;8.57;4.03;;;;;;;;;;5091611;28;20031;-67
2022/06/30 12:26:08;;;;;;;10.05;4.72;;;;;;;;;;5091054;28;20047;-67
2022/06/30 12:28:55;;;;;;;13.05;3.58;;;;;;;;;;5087255;28;20066;-67
2022/06/30 12:31:29;;;;;;;8.35;2.90;;;;;;;;;;5089129;28;20030;-67
2022/06/30 12:33:56;;;;;;;4.80;2.20;;;;;;;;;;5090433;28;20057;-67
2022/06/30 12:36:30;;;;;;;7.18;3.22;;;;;;;;;;5088824;28;20433;-67
2022/06/30 12:38:56;;;;;;;8.50;3.13;;;;;;;;;;5092222;28;20020;-67
2022/06/30 12:41:23;;;;;;;10.20;3.08;;;;;;;;;;5089754;28;20047;-67
2022/06/30 12:43:50;;;;;;;6.22;2.63;;;;;;;;;;5086417;28;20030;-67
2022/06/30 12:46:17;;;;;;;5.90;2.78;;;;;;;;;;5087691;28;20020;-67
2022/06/30 12:48:50;;;;;;;7.68;3.08;;;;;;;;;;5083976;28;20024;-67
2022/06/30 12:51:37;;;;;;;6.30;2.50;;;;;;;;;;5089010;28;20016;-67
2022/06/30 12:54:08;;;;;;;10.15;5.13;;;;;;;;;;5073342;28;20036;-67
2022/06/30 12:56:34;;;;;;;6.13;2.70;;;;;;;;;;5091269;28;20027;-67
2022/06/30 12:59:00;;;;;;;11.18;2.90;;;;;;;;;;5090849;28;20107;-67
2022/06/30 13:01:27;;;;;;;8.43;3.40;;;;;;;;;;5085515;28;20444;-67
2022/06/30 13:04:04;;;;;;;7.15;2.90;;;;;;;;;;5094872;28;20024;-67
2022/06/30 13:06:32;;;;;;;7.82;4.28;;;;;;;;;;5089119;28;20070;-67
2022/06/30 13:09:03;;;;;;;7.53;3.30;;;;;;;;;;5087076;28;20024;-67
2022/06/30 13:11:29;;;;;;;5.75;3.20;;;;;;;;;;5085347;28;20020;-67
2022/06/30 13:13:56;;;;;;;8.75;3.10;;;;;;;;;;5090326;28;20045;-67
2022/06/30 13:16:22;;;;;;;7.65;3.22;;;;;;;;;;5083283;28;20032;-67
2022/06/30 13:18:49;;;;;;;4.97;2.80;;;;;;;;;;5081924;28;20020;-67
2022/06/30 13:21:16;;;;;;;7.00;3.10;;;;;;;;;;5088504;28;20028;-66
2022/06/30 13:23:42;;;;;;;7.18;2.50;;;;;;;;;;5086702;28;20229;-68
2022/06/30 13:26:08;;;;;;;5.03;2.20;;;;;;;;;;5086798;28;20062;-68
2022/06/30 13:28:34;;;;;;;6.90;2.58;;;;;;;;;;5082866;28;20036;-68
2022/06/30 13:31:00;;;;;;;5.53;2.70;;;;;;;;;;5087551;28;20527;-68
2022/06/30 13:33:26;;;;;;;6.90;3.08;;;;;;;;;;5089068;28;20103;-68
2022/06/30 13:35:52;;;;;;;5.70;3.10;;;;;;;;;;5085534;28;20482;-68
2022/06/30 13:38:18;;;;;;;6.80;3.00;;;;;;;;;;5089466;28;20027;-68
2022/06/30 13:40:44;;;;;;;6.43;3.13;;;;;;;;;;5080243;28;20079;-68
2022/06/30 13:43:10;;;;;;;5.70;2.97;;;;;;;;;;5085810;28;20426;-69
2022/06/30 13:45:36;;;;;;;9.00;2.88;;;;;;;;;;5080033;28;20016;-68
2022/06/30 13:48:02;;;;;;;9.30;2.80;;;;;;;;;;5089025;28;20484;-68
2022/06/30 13:50:28;;;;;;;4.72;2.90;;;;;;;;;;5089056;28;20353;-69
2022/06/30 13:52:54;;;;;;;6.70;2.63;;;;;;;;;;5084664;28;20364;-69
2022/06/30 13:55:20;;;;;;;9.35;3.22;;;;;;;;;;5087828;28;20028;-68
2022/06/30 13:57:46;;;;;;;6.60;3.25;;;;;;;;;;5094853;28;20038;-68
2022/06/30 14:00:12;;;;;;;6.72;4.07;;;;;;;;;;5081768;28;20476;-69
2022/06/30 14:02:38;;;;;;;9.52;2.75;;;;;;;;;;5090669;28;20019;-68
2022/06/30 14:05:04;;;;;;;6.18;3.25;;;;;;;;;;5082318;28;20134;-68
2022/06/30 14:07:30;;;;;;;4.65;2.65;;;;;;;;;;5081806;28;20557;-69
2022/06/30 14:09:58;;;;;;;8.07;3.20;;;;;;;;;;5082332;28;20016;-69
2022/06/30 14:12:24;;;;;;;6.78;3.25;;;;;;;;;;5088096;28;20013;-68
2022/06/30 14:14:50;;;;;;;5.40;2.72;;;;;;;;;;5078898;28;20028;-69
2022/06/30 14:17:18;;;;;;;4.40;3.00;;;;;;;;;;5090943;28;20032;-68
2022/06/30 14:19:45;;;;;;;7.97;2.80;;;;;;;;;;5083107;28;20114;-68
2022/06/30 14:22:11;;;;;;;9.27;2.83;;;;;;;;;;5087503;28;20450;-68
2022/06/30 14:24:37;;;;;;;6.00;2.90;;;;;;;;;;5092565;28;20395;-69
2022/06/30 14:27:03;;;;;;;6.32;3.00;;;;;;;;;;5090246;28;20017;-69
2022/06/30 14:29:29;;;;;;;9.85;3.28;;;;;;;;;;5086879;28;20063;-68
2022/06/30 14:31:55;;;;;;;9.90;3.22;;;;;;;;;;5069686;28;20518;-69
2022/06/30 14:34:21;;;;;;;11.85;3.15;;;;;;;;;;5085225;28;20031;-68
2022/06/30 14:36:49;;;;;;;9.07;3.85;;;;;;;;;;5084885;28;20095;-67
2022/06/30 14:39:15;;;;;;;6.63;2.92;;;;;;;;;;5090781;28;20137;-68
2022/06/30 14:44:25;;;;;;;10.95;3.53;;;;;;;;;;5083459;28;20055;-68
2022/06/30 14:46:51;;;;;;;10.77;3.30;;;;;;;;;;5087405;28;20364;-68
2022/06/30 14:49:17;;;;;;;9.10;3.33;;;;;;;;;;5094966;28;20016;-68
2022/06/30 14:51:44;;;;;;;8.35;3.13;;;;;;;;;;5095528;28;20528;-66
2022/06/30 14:54:10;;;;;;;8.73;3.50;;;;;;;;;;5091335;28;20463;-67